Time;durP1;ratioP1;P1;durP2;ratioP2;P2;SDS_P1;SDS_P2;PMS_P1;PMS_P2;Temp;Humidity;BMP_temperature;BMP_pressure;BME280_temperature;BME280_humidity;BME280_pressure;Samples;Min_cycle;Max_cycle;Signal;HPM_P1;HPM_P2
2022/07/27 12:47:42;;;;;;;;;;;22.30;45.70;;;;;;490954;242;1344;-50
2022/07/27 12:49:43;;;;;;;;;;;22.30;45.80;;;;;;491122;240;1238;-49
2022/07/27 12:51:45;;;;;;;;;;;22.30;45.80;;;;;;491131;240;1224;-49
2022/07/27 12:53:46;;;;;;;;;;;22.30;45.90;;;;;;490954;240;1537;-49
2022/07/27 12:55:47;;;;;;;;;;;22.30;45.80;;;;;;491107;240;1297;-50
2022/07/27 12:57:49;;;;;;;;;;;22.30;45.80;;;;;;491278;240;2165;-50
2022/07/27 12:59:50;;;;;;;;;;;22.30;45.70;;;;;;491082;240;1277;-49
2022/07/27 13:01:51;;;;;;;;;;;22.30;45.70;;;;;;491050;240;1191;-49
2022/07/27 13:03:53;;;;;;;;;;;22.30;45.70;;;;;;491092;240;1217;-49
2022/07/27 13:05:54;;;;;;;;;;;22.30;45.70;;;;;;490974;240;1169;-50
2022/07/27 13:07:55;;;;;;;;;;;22.30;45.70;;;;;;491029;240;1339;-50
2022/07/27 13:09:57;;;;;;;;;;;22.30;45.60;;;;;;491073;240;1223;-50
2022/07/27 13:11:58;;;;;;;;;;;22.30;45.60;;;;;;491115;240;1279;-50
2022/07/27 13:13:59;;;;;;;;;;;22.30;45.60;;;;;;491062;240;1199;-49
2022/07/27 13:16:00;;;;;;;;;;;22.30;45.60;;;;;;491040;240;1158;-49
2022/07/27 13:18:02;;;;;;;;;;;22.30;45.60;;;;;;491087;240;2185;-49
2022/07/27 13:20:03;;;;;;;;;;;22.30;45.60;;;;;;491008;240;1197;-49
2022/07/27 13:22:05;;;;;;;;;;;22.30;45.60;;;;;;491107;240;1222;-50
2022/07/27 13:24:08;;;;;;;;;;;22.30;45.50;;;;;;491082;240;1435;-50
2022/07/27 13:26:07;;;;;;;;;;;22.30;45.50;;;;;;491059;240;2113;-50
2022/07/27 13:28:09;;;;;;;;;;;22.30;45.50;;;;;;490965;240;1240;-49
2022/07/27 13:30:10;;;;;;;;;;;22.30;45.50;;;;;;490987;240;1280;-49
2022/07/27 13:32:11;;;;;;;;;;;22.30;45.40;;;;;;491096;240;1217;-50
2022/07/27 13:34:13;;;;;;;;;;;22.30;45.40;;;;;;491147;240;1292;-49
2022/07/27 13:36:14;;;;;;;;;;;22.30;45.40;;;;;;491371;240;1149;-50
2022/07/27 13:38:16;;;;;;;;;;;22.30;45.40;;;;;;491083;240;2136;-50
2022/07/27 13:40:17;;;;;;;;;;;22.30;45.40;;;;;;491175;240;1272;-49
2022/07/27 13:42:19;;;;;;;;;;;22.30;45.40;;;;;;491047;240;1623;-49
2022/07/27 13:44:19;;;;;;;;;;;22.30;45.40;;;;;;490980;240;2240;-50
2022/07/27 13:46:21;;;;;;;;;;;22.30;45.40;;;;;;491133;240;1211;-50
2022/07/27 13:48:22;;;;;;;;;;;22.30;45.40;;;;;;490970;240;1311;-50
2022/07/27 13:50:24;;;;;;;;;;;22.30;45.30;;;;;;491118;240;1220;-49
2022/07/27 13:52:25;;;;;;;;;;;22.30;45.30;;;;;;491201;240;1289;-50
2022/07/27 13:54:26;;;;;;;;;;;22.30;45.40;;;;;;491098;240;1219;-49
2022/07/27 13:56:30;;;;;;;;;;;22.30;45.30;;;;;;491171;240;1265;-50
2022/07/27 13:58:29;;;;;;;;;;;22.30;45.30;;;;;;491400;240;2259;-49
2022/07/27 14:00:30;;;;;;;;;;;22.30;45.30;;;;;;491322;240;1170;-49
2022/07/27 14:02:32;;;;;;;;;;;22.20;45.40;;;;;;491171;240;1284;-50
2022/07/27 14:04:34;;;;;;;;;;;22.20;45.60;;;;;;491162;240;1104;-49
2022/07/27 14:06:35;;;;;;;;;;;22.30;45.50;;;;;;491117;240;1932;-49
2022/07/27 14:08:36;;;;;;;;;;;22.30;45.40;;;;;;491388;240;1104;-50
2022/07/27 14:10:41;;;;;;;;;;;22.30;45.40;;;;;;491226;240;1080;-50
2022/07/27 14:12:42;;;;;;;;;;;22.30;45.40;;;;;;491080;240;1111;-49
2022/07/27 14:14:43;;;;;;;;;;;22.30;45.30;;;;;;491180;240;1153;-50
2022/07/27 14:16:44;;;;;;;;;;;22.30;45.30;;;;;;491087;240;1218;-50
2022/07/27 14:18:46;;;;;;;;;;;22.30;45.30;;;;;;491226;240;2232;-49
2022/07/27 14:20:48;;;;;;;;;;;22.30;45.30;;;;;;491102;240;1126;-50
2022/07/27 14:22:49;;;;;;;;;;;22.30;45.30;;;;;;491216;240;1644;-49
2022/07/27 14:24:50;;;;;;;;;;;22.30;45.20;;;;;;491350;240;1193;-49
2022/07/27 14:26:51;;;;;;;;;;;22.30;45.20;;;;;;491375;240;1329;-49
2022/07/27 14:28:55;;;;;;;;;;;22.30;45.20;;;;;;491085;240;1251;-50
2022/07/27 14:30:55;;;;;;;;;;;22.30;45.20;;;;;;491138;240;1955;-49
2022/07/27 14:32:57;;;;;;;;;;;22.30;45.20;;;;;;491060;240;1241;-49
2022/07/27 14:34:57;;;;;;;;;;;22.30;45.20;;;;;;490961;240;1800;-50
2022/07/27 14:36:59;;;;;;;;;;;22.30;45.20;;;;;;491124;240;1219;-49
2022/07/27 14:39:00;;;;;;;;;;;22.30;45.20;;;;;;491008;240;2168;-49
2022/07/27 14:41:01;;;;;;;;;;;22.30;45.20;;;;;;490930;240;1368;-49
2022/07/27 14:43:03;;;;;;;;;;;22.30;45.20;;;;;;491152;240;1085;-50
2022/07/27 14:45:04;;;;;;;;;;;22.30;45.20;;;;;;491121;240;1208;-49
2022/07/27 14:47:05;;;;;;;;;;;22.30;45.20;;;;;;491116;240;1267;-49
2022/07/27 14:49:07;;;;;;;;;;;22.30;45.10;;;;;;490987;240;1237;-49
2022/07/27 14:51:08;;;;;;;;;;;22.30;45.10;;;;;;490926;240;1505;-50
2022/07/27 14:53:09;;;;;;;;;;;22.30;45.10;;;;;;490935;240;1166;-49
2022/07/27 14:55:12;;;;;;;;;;;22.30;45.20;;;;;;491121;240;1267;-49
2022/07/27 14:57:12;;;;;;;;;;;22.30;45.20;;;;;;491157;240;1751;-50
2022/07/27 14:59:13;;;;;;;;;;;22.30;45.20;;;;;;491041;240;2193;-50
2022/07/27 15:01:15;;;;;;;;;;;22.30;45.10;;;;;;491041;240;1278;-49
2022/07/27 15:03:16;;;;;;;;;;;22.30;45.10;;;;;;490915;240;1288;-50
2022/07/27 15:05:17;;;;;;;;;;;22.30;45.20;;;;;;491102;240;1260;-50
2022/07/27 15:07:19;;;;;;;;;;;22.30;45.20;;;;;;491103;240;1210;-49
2022/07/27 15:09:21;;;;;;;;;;;22.30;45.20;;;;;;491009;240;1263;-50
2022/07/27 15:11:21;;;;;;;;;;;22.30;45.10;;;;;;491083;240;2043;-49
2022/07/27 15:13:23;;;;;;;;;;;22.20;45.10;;;;;;491132;240;1163;-49
2022/07/27 15:15:24;;;;;;;;;;;22.20;45.10;;;;;;491222;240;1324;-49
2022/07/27 15:17:25;;;;;;;;;;;22.20;45.00;;;;;;491049;240;2125;-50
2022/07/27 15:19:27;;;;;;;;;;;22.20;45.00;;;;;;490962;240;1254;-49
2022/07/27 15:21:28;;;;;;;;;;;22.30;45.10;;;;;;491081;240;1304;-49
2022/07/27 15:23:29;;;;;;;;;;;22.20;45.10;;;;;;491288;240;1242;-50
2022/07/27 15:25:31;;;;;;;;;;;22.20;45.10;;;;;;491285;240;1072;-50
2022/07/27 15:27:32;;;;;;;;;;;22.20;45.10;;;;;;491201;240;1044;-50
2022/07/27 15:29:34;;;;;;;;;;;22.20;45.00;;;;;;491055;240;1221;-50
2022/07/27 15:31:35;;;;;;;;;;;22.20;45.00;;;;;;491006;240;1288;-50
2022/07/27 15:33:36;;;;;;;;;;;22.20;45.00;;;;;;491042;240;1154;-49
2022/07/27 15:35:38;;;;;;;;;;;22.20;45.00;;;;;;491231;240;1118;-49
2022/07/27 15:37:39;;;;;;;;;;;22.20;45.00;;;;;;491184;240;2255;-50
2022/07/27 15:39:40;;;;;;;;;;;22.20;44.90;;;;;;491111;240;1163;-50
2022/07/27 15:41:42;;;;;;;;;;;22.20;44.90;;;;;;491045;240;1185;-50
2022/07/27 15:43:43;;;;;;;;;;;22.20;44.90;;;;;;491081;240;1319;-50
2022/07/27 15:45:45;;;;;;;;;;;22.20;44.90;;;;;;491055;240;1208;-49
2022/07/27 15:47:47;;;;;;;;;;;22.20;44.80;;;;;;491089;240;2207;-49
2022/07/27 15:49:47;;;;;;;;;;;22.20;44.80;;;;;;491267;240;1574;-49
2022/07/27 15:51:48;;;;;;;;;;;22.20;44.80;;;;;;491114;240;1249;-49
2022/07/27 15:53:50;;;;;;;;;;;22.20;44.80;;;;;;491102;240;1309;-49
2022/07/27 15:55:51;;;;;;;;;;;22.20;44.90;;;;;;491390;240;1477;-50
2022/07/27 15:57:53;;;;;;;;;;;22.30;45.00;;;;;;491273;240;2203;-50
2022/07/27 15:59:54;;;;;;;;;;;22.30;45.00;;;;;;491633;240;1206;-49
2022/07/27 16:01:57;;;;;;;;;;;22.20;45.00;;;;;;491528;240;1098;-49
2022/07/27 16:03:57;;;;;;;;;;;22.20;45.10;;;;;;491312;240;1343;-50
2022/07/27 16:05:58;;;;;;;;;;;22.20;45.10;;;;;;491335;240;1212;-50
2022/07/27 16:08:00;;;;;;;;;;;22.20;45.20;;;;;;491263;240;1239;-49
2022/07/27 16:10:01;;;;;;;;;;;22.20;45.20;;;;;;491413;240;1164;-49
2022/07/27 16:12:02;;;;;;;;;;;22.20;45.20;;;;;;491277;240;1221;-50
2022/07/27 16:14:04;;;;;;;;;;;22.20;45.30;;;;;;491166;240;1234;-49
2022/07/27 16:18:35;;;;;;;;;;;22.20;45.40;;;;;;487661;241;2183;-50
2022/07/27 16:20:36;;;;;;;;;;;22.20;45.40;;;;;;491369;240;1530;-50
2022/07/27 16:22:38;;;;;;;;;;;22.20;45.40;;;;;;491501;240;1455;-50
2022/07/27 16:24:38;;;;;;;;;;;22.20;45.40;;;;;;491294;240;1425;-50
2022/07/27 16:26:40;;;;;;;;;;;22.20;45.40;;;;;;491355;240;1340;-49
2022/07/27 16:28:41;;;;;;;;;;;22.20;45.40;;;;;;491319;240;1330;-49
2022/07/27 16:30:43;;;;;;;;;;;22.20;45.50;;;;;;491439;240;1227;-51
2022/07/27 16:32:44;;;;;;;;;;;22.20;45.50;;;;;;491413;240;1236;-49
2022/07/27 16:34:45;;;;;;;;;;;22.20;45.50;;;;;;491316;240;1220;-49
2022/07/27 16:36:48;;;;;;;;;;;22.20;45.60;;;;;;491383;240;1226;-49
2022/07/27 16:38:50;;;;;;;;;;;22.20;45.60;;;;;;491448;240;2132;-49
2022/07/27 16:40:49;;;;;;;;;;;22.20;45.60;;;;;;491421;240;2452;-50
2022/07/27 16:42:51;;;;;;;;;;;22.20;45.60;;;;;;491580;240;1225;-50
2022/07/27 16:44:53;;;;;;;;;;;22.20;45.60;;;;;;491660;240;1270;-49
2022/07/27 16:46:54;;;;;;;;;;;22.20;45.60;;;;;;491444;240;1279;-50
2022/07/27 16:48:55;;;;;;;;;;;22.20;45.70;;;;;;491937;240;1180;-50
2022/07/27 16:50:57;;;;;;;;;;;22.20;45.70;;;;;;491598;240;1135;-50
2022/07/27 16:52:58;;;;;;;;;;;22.20;45.80;;;;;;491842;240;1239;-50
2022/07/27 16:54:59;;;;;;;;;;;22.20;45.80;;;;;;491632;240;1199;-50
2022/07/27 16:57:01;;;;;;;;;;;22.20;45.80;;;;;;491475;240;1198;-50
2022/07/27 16:59:02;;;;;;;;;;;22.20;45.80;;;;;;491380;240;2187;-49
2022/07/27 17:01:03;;;;;;;;;;;22.20;45.90;;;;;;491437;240;1201;-50
2022/07/27 17:03:05;;;;;;;;;;;22.20;45.90;;;;;;491510;240;1236;-50
2022/07/27 17:05:08;;;;;;;;;;;22.20;45.90;;;;;;491501;240;1217;-50
2022/07/27 17:07:07;;;;;;;;;;;22.20;46.00;;;;;;491832;240;2388;-50
2022/07/27 17:09:09;;;;;;;;;;;22.20;45.90;;;;;;491441;240;1179;-50
2022/07/27 17:11:11;;;;;;;;;;;22.20;45.90;;;;;;491384;240;1202;-49
2022/07/27 17:13:11;;;;;;;;;;;22.20;45.90;;;;;;491733;240;2177;-49
2022/07/27 17:15:13;;;;;;;;;;;22.20;46.10;;;;;;491767;240;1253;-50
2022/07/27 17:17:14;;;;;;;;;;;22.20;46.00;;;;;;491506;240;1229;-50
2022/07/27 17:19:15;;;;;;;;;;;22.20;46.00;;;;;;491511;240;2171;-49
2022/07/27 17:21:17;;;;;;;;;;;22.20;46.00;;;;;;491404;240;1241;-49
2022/07/27 17:23:18;;;;;;;;;;;22.20;46.10;;;;;;491684;240;1155;-50
2022/07/27 17:25:20;;;;;;;;;;;22.20;46.10;;;;;;491496;240;1205;-49
2022/07/27 17:27:22;;;;;;;;;;;22.20;46.10;;;;;;491994;240;1165;-49
2022/07/27 17:29:23;;;;;;;;;;;22.20;46.10;;;;;;491879;240;1609;-49
2022/07/27 17:31:25;;;;;;;;;;;22.20;46.10;;;;;;491825;240;1179;-50
2022/07/27 17:33:26;;;;;;;;;;;22.20;46.20;;;;;;491628;240;1292;-50
2022/07/27 17:35:27;;;;;;;;;;;22.20;46.20;;;;;;491520;240;1217;-49
2022/07/27 17:37:28;;;;;;;;;;;22.20;46.20;;;;;;491815;240;1525;-49
2022/07/27 17:39:30;;;;;;;;;;;22.10;46.30;;;;;;491598;240;2500;-50
2022/07/27 17:41:31;;;;;;;;;;;22.20;46.30;;;;;;491600;240;2802;-50
2022/07/27 17:43:37;;;;;;;;;;;22.20;46.30;;;;;;491972;240;1277;-50
2022/07/27 17:45:34;;;;;;;;;;;22.20;46.30;;;;;;492082;240;2256;-49
2022/07/27 17:47:36;;;;;;;;;;;22.20;46.30;;;;;;491530;240;1229;-49
2022/07/27 17:49:37;;;;;;;;;;;22.20;46.30;;;;;;491812;240;1290;-50
2022/07/27 17:51:38;;;;;;;;;;;22.20;46.30;;;;;;491491;240;1162;-50
2022/07/27 17:53:40;;;;;;;;;;;22.20;46.30;;;;;;491472;240;1279;-50
2022/07/27 17:55:41;;;;;;;;;;;22.20;46.40;;;;;;491692;240;1252;-50
2022/07/27 17:57:42;;;;;;;;;;;22.20;46.40;;;;;;491542;240;1243;-50
2022/07/27 17:59:44;;;;;;;;;;;22.20;46.40;;;;;;491518;240;2175;-50
2022/07/27 18:01:45;;;;;;;;;;;22.20;46.40;;;;;;491665;240;1070;-49
2022/07/27 18:03:46;;;;;;;;;;;22.20;46.40;;;;;;491500;240;1261;-49
2022/07/27 18:05:47;;;;;;;;;;;22.20;46.40;;;;;;491543;240;1220;-50
2022/07/27 18:07:50;;;;;;;;;;;22.20;46.40;;;;;;491519;240;1157;-49
2022/07/27 18:09:50;;;;;;;;;;;22.20;46.40;;;;;;491538;240;1519;-49
2022/07/27 18:11:52;;;;;;;;;;;22.10;46.40;;;;;;491822;240;1185;-50
2022/07/27 18:13:53;;;;;;;;;;;22.20;46.50;;;;;;491977;240;1274;-49
2022/07/27 18:15:54;;;;;;;;;;;22.20;46.50;;;;;;491759;240;1246;-50
2022/07/27 18:17:56;;;;;;;;;;;22.20;46.60;;;;;;491556;240;1180;-49
2022/07/27 18:19:57;;;;;;;;;;;22.20;46.50;;;;;;491573;240;2185;-50
2022/07/27 18:21:58;;;;;;;;;;;22.20;46.70;;;;;;491609;240;1229;-50
2022/07/27 18:24:00;;;;;;;;;;;22.10;46.60;;;;;;491982;240;1247;-50
2022/07/27 18:26:01;;;;;;;;;;;22.10;46.60;;;;;;491983;240;1264;-49
2022/07/27 18:28:02;;;;;;;;;;;22.10;46.60;;;;;;491521;240;1212;-50
2022/07/27 18:30:04;;;;;;;;;;;22.20;46.70;;;;;;491744;240;1243;-49
2022/07/27 18:32:05;;;;;;;;;;;22.20;46.70;;;;;;491673;240;1214;-49
2022/07/27 18:34:06;;;;;;;;;;;22.20;46.70;;;;;;491726;240;1483;-49
2022/07/27 18:36:08;;;;;;;;;;;22.20;46.70;;;;;;491589;240;1586;-50
2022/07/27 18:38:09;;;;;;;;;;;22.20;46.70;;;;;;491967;240;1253;-50
2022/07/27 18:40:10;;;;;;;;;;;22.10;46.70;;;;;;491601;240;2184;-50
2022/07/27 18:42:12;;;;;;;;;;;22.10;46.60;;;;;;492034;240;1367;-49
2022/07/27 18:44:13;;;;;;;;;;;22.20;46.70;;;;;;491649;240;1368;-49
2022/07/27 18:46:16;;;;;;;;;;;22.20;46.70;;;;;;491876;240;1158;-50
2022/07/27 18:48:16;;;;;;;;;;;22.10;46.70;;;;;;491598;240;1574;-49
2022/07/27 18:50:17;;;;;;;;;;;22.10;46.70;;;;;;491892;240;1184;-49
2022/07/27 18:52:18;;;;;;;;;;;22.20;46.70;;;;;;491971;240;1204;-50
2022/07/27 18:54:20;;;;;;;;;;;22.20;46.70;;;;;;491749;240;1206;-50
2022/07/27 18:56:21;;;;;;;;;;;22.10;46.70;;;;;;492085;240;1115;-49
2022/07/27 18:58:22;;;;;;;;;;;22.20;46.80;;;;;;491650;240;1433;-49
2022/07/27 19:00:24;;;;;;;;;;;22.10;46.80;;;;;;491672;240;2165;-50
2022/07/27 19:02:25;;;;;;;;;;;22.10;46.80;;;;;;491567;240;1165;-49
2022/07/27 19:04:26;;;;;;;;;;;22.20;46.80;;;;;;491995;240;1207;-49
2022/07/27 19:06:28;;;;;;;;;;;22.20;46.70;;;;;;491817;240;1304;-50
2022/07/27 19:08:29;;;;;;;;;;;22.20;46.80;;;;;;492091;240;1259;-49
2022/07/27 19:10:30;;;;;;;;;;;22.20;46.70;;;;;;491578;240;1214;-50
2022/07/27 19:12:32;;;;;;;;;;;22.20;46.70;;;;;;491707;240;1230;-49
2022/07/27 19:14:33;;;;;;;;;;;22.20;46.70;;;;;;491845;240;1255;-49
2022/07/27 19:16:34;;;;;;;;;;;22.20;46.80;;;;;;491851;240;1301;-50
2022/07/27 19:18:36;;;;;;;;;;;22.20;46.90;;;;;;491592;240;1173;-50
2022/07/27 19:20:37;;;;;;;;;;;22.20;46.90;;;;;;492056;240;2180;-50
2022/07/27 19:22:44;;;;;;;;;;;22.20;46.80;;;;;;492033;240;1263;-49
2022/07/27 19:24:40;;;;;;;;;;;22.20;46.90;;;;;;491851;240;1611;-50
2022/07/27 19:26:41;;;;;;;;;;;22.20;46.90;;;;;;491627;240;1209;-50
2022/07/27 19:28:43;;;;;;;;;;;22.10;46.90;;;;;;491610;240;1193;-49
2022/07/27 19:30:44;;;;;;;;;;;22.20;47.00;;;;;;491780;240;1227;-50
2022/07/27 19:32:46;;;;;;;;;;;22.20;47.00;;;;;;491646;240;1134;-50
2022/07/27 19:34:47;;;;;;;;;;;22.20;47.00;;;;;;492028;240;1327;-50
2022/07/27 19:36:48;;;;;;;;;;;22.10;47.00;;;;;;491887;240;1197;-49
2022/07/27 19:38:50;;;;;;;;;;;22.10;47.00;;;;;;491989;240;1995;-49
2022/07/27 19:40:52;;;;;;;;;;;22.10;47.10;;;;;;492050;240;2187;-50
2022/07/27 19:42:52;;;;;;;;;;;22.10;47.10;;;;;;491598;240;2423;-50
2022/07/27 19:44:54;;;;;;;;;;;22.10;47.10;;;;;;492082;240;1166;-50
2022/07/27 19:46:56;;;;;;;;;;;22.10;47.00;;;;;;491714;240;1186;-49
2022/07/27 19:48:56;;;;;;;;;;;22.10;47.00;;;;;;491617;240;1940;-50
2022/07/27 19:50:58;;;;;;;;;;;22.10;47.00;;;;;;491865;240;1204;-49
2022/07/27 19:52:59;;;;;;;;;;;22.20;47.10;;;;;;492093;240;1222;-50
2022/07/27 19:55:00;;;;;;;;;;;22.10;47.00;;;;;;492065;240;1155;-50
2022/07/27 19:57:02;;;;;;;;;;;22.20;47.10;;;;;;491838;240;1138;-50
2022/07/27 19:59:03;;;;;;;;;;;22.10;47.10;;;;;;491970;240;1134;-49
2022/07/27 20:01:04;;;;;;;;;;;22.10;47.10;;;;;;491553;240;2177;-49
2022/07/27 20:03:06;;;;;;;;;;;22.20;47.20;;;;;;491874;240;1181;-50
2022/07/27 20:05:08;;;;;;;;;;;22.20;47.20;;;;;;491779;240;1054;-49
2022/07/27 20:07:09;;;;;;;;;;;22.10;47.10;;;;;;492055;240;1146;-50
2022/07/27 20:09:10;;;;;;;;;;;22.10;47.10;;;;;;491649;240;1068;-49
2022/07/27 20:11:12;;;;;;;;;;;22.10;47.20;;;;;;491683;240;1018;-50
2022/07/27 20:13:13;;;;;;;;;;;22.20;47.20;;;;;;491641;240;1243;-49
2022/07/27 20:15:14;;;;;;;;;;;22.10;47.10;;;;;;492127;240;1107;-50
2022/07/27 20:17:16;;;;;;;;;;;22.10;47.10;;;;;;491612;240;1230;-49
2022/07/27 20:19:17;;;;;;;;;;;22.20;47.20;;;;;;491657;240;2191;-49
2022/07/27 20:21:18;;;;;;;;;;;22.10;47.20;;;;;;492052;240;1048;-49
2022/07/27 20:23:20;;;;;;;;;;;22.10;47.20;;;;;;491585;240;972;-49
2022/07/27 20:25:21;;;;;;;;;;;22.10;47.20;;;;;;491614;240;1169;-50
2022/07/27 20:27:22;;;;;;;;;;;22.10;47.30;;;;;;491576;240;1048;-49
2022/07/27 20:29:27;;;;;;;;;;;22.10;47.30;;;;;;491619;240;1051;-49
2022/07/27 20:31:25;;;;;;;;;;;22.10;47.20;;;;;;491748;240;2212;-49
2022/07/27 20:33:26;;;;;;;;;;;22.10;47.30;;;;;;491874;238;1229;-49
2022/07/27 20:35:28;;;;;;;;;;;22.10;47.30;;;;;;491625;240;1202;-50
2022/07/27 20:37:29;;;;;;;;;;;22.10;47.30;;;;;;491584;240;1237;-50
2022/07/27 20:39:30;;;;;;;;;;;22.10;47.30;;;;;;492063;240;2192;-49
2022/07/27 20:41:32;;;;;;;;;;;22.10;47.30;;;;;;491884;240;1182;-50
2022/07/27 20:43:33;;;;;;;;;;;22.10;47.30;;;;;;492025;240;1293;-49
2022/07/27 20:45:34;;;;;;;;;;;22.10;47.30;;;;;;491558;240;1173;-50
2022/07/27 20:47:37;;;;;;;;;;;22.10;47.30;;;;;;491555;240;1055;-49
2022/07/27 20:49:37;;;;;;;;;;;22.10;47.30;;;;;;491632;240;2550;-49
2022/07/27 20:51:40;;;;;;;;;;;22.10;47.30;;;;;;491595;240;1191;-49
2022/07/27 20:53:40;;;;;;;;;;;22.10;47.30;;;;;;491637;240;1938;-49
2022/07/27 20:55:42;;;;;;;;;;;22.10;47.30;;;;;;492038;240;1021;-50
2022/07/27 20:57:43;;;;;;;;;;;22.10;47.30;;;;;;491591;240;2823;-50
2022/07/27 20:59:44;;;;;;;;;;;22.10;47.40;;;;;;491652;240;2129;-49
2022/07/27 21:01:45;;;;;;;;;;;22.10;47.30;;;;;;491995;240;1209;-50
2022/07/27 21:03:47;;;;;;;;;;;22.10;47.40;;;;;;491925;240;1138;-49
2022/07/27 21:05:48;;;;;;;;;;;22.10;47.40;;;;;;491818;240;1104;-50
2022/07/27 21:07:49;;;;;;;;;;;22.10;47.40;;;;;;491558;240;1156;-49
2022/07/27 21:09:51;;;;;;;;;;;22.10;47.50;;;;;;492045;240;1023;-50
2022/07/27 21:11:52;;;;;;;;;;;22.10;47.40;;;;;;491562;240;1265;-50
2022/07/27 21:13:53;;;;;;;;;;;22.10;47.50;;;;;;491613;240;1131;-49
2022/07/27 21:15:55;;;;;;;;;;;22.10;47.50;;;;;;491649;240;1246;-50
2022/07/27 21:17:56;;;;;;;;;;;22.10;47.50;;;;;;491603;240;1144;-49
2022/07/27 21:19:57;;;;;;;;;;;22.10;47.50;;;;;;491572;240;2199;-50
2022/07/27 21:21:59;;;;;;;;;;;22.10;47.40;;;;;;491553;240;1260;-50
2022/07/27 21:24:15;;;;;;;;;;;22.10;47.50;;;;;;491636;240;1266;-49
2022/07/27 21:26:17;;;;;;;;;;;22.10;47.50;;;;;;492087;240;1297;-50
2022/07/27 21:28:18;;;;;;;;;;;22.10;47.50;;;;;;491767;240;1231;-50
2022/07/27 21:30:19;;;;;;;;;;;22.10;47.50;;;;;;491575;240;1119;-50
2022/07/27 21:32:21;;;;;;;;;;;22.10;47.50;;;;;;492040;240;1208;-50
2022/07/27 21:34:22;;;;;;;;;;;22.10;47.50;;;;;;491800;240;1133;-50
2022/07/27 21:36:23;;;;;;;;;;;22.10;47.60;;;;;;491999;240;1270;-49
2022/07/27 21:38:25;;;;;;;;;;;22.10;47.60;;;;;;491771;240;1040;-50
2022/07/27 21:40:26;;;;;;;;;;;22.10;47.60;;;;;;491901;240;2110;-49
2022/07/27 21:42:29;;;;;;;;;;;22.10;47.60;;;;;;492127;240;1395;-49
2022/07/27 21:44:29;;;;;;;;;;;22.10;47.50;;;;;;491872;240;1885;-49
2022/07/27 21:46:30;;;;;;;;;;;22.10;47.60;;;;;;491645;240;1194;-50
2022/07/27 21:48:31;;;;;;;;;;;22.10;47.50;;;;;;491627;240;1191;-50
2022/07/27 21:50:33;;;;;;;;;;;22.10;47.60;;;;;;491860;240;1202;-50
2022/07/27 21:52:34;;;;;;;;;;;22.10;47.60;;;;;;491592;240;1181;-49
2022/07/27 21:54:35;;;;;;;;;;;22.10;47.70;;;;;;491648;240;1156;-50
2022/07/27 21:56:37;;;;;;;;;;;22.10;47.70;;;;;;491661;240;1257;-49
2022/07/27 21:58:38;;;;;;;;;;;22.10;47.70;;;;;;491735;240;1244;-50
2022/07/27 22:00:39;;;;;;;;;;;22.10;47.60;;;;;;492088;240;2113;-49
2022/07/27 22:02:41;;;;;;;;;;;22.10;47.60;;;;;;491758;240;1072;-49
2022/07/27 22:04:42;;;;;;;;;;;22.10;47.70;;;;;;491695;240;1198;-49
2022/07/27 22:06:44;;;;;;;;;;;22.10;47.70;;;;;;491636;240;949;-50
2022/07/27 22:08:45;;;;;;;;;;;22.10;47.70;;;;;;491689;240;1054;-50
2022/07/27 22:10:47;;;;;;;;;;;22.10;47.70;;;;;;491623;240;1143;-49
2022/07/27 22:12:48;;;;;;;;;;;22.10;47.80;;;;;;491688;240;1409;-50
2022/07/27 22:14:49;;;;;;;;;;;22.10;47.70;;;;;;492109;240;1126;-49
2022/07/27 22:16:52;;;;;;;;;;;22.10;47.70;;;;;;491778;240;1357;-50
2022/07/27 22:18:55;;;;;;;;;;;22.10;47.70;;;;;;491628;240;1186;-50
2022/07/27 22:20:55;;;;;;;;;;;22.10;47.70;;;;;;491797;240;2184;-50
2022/07/27 22:22:57;;;;;;;;;;;22.10;47.70;;;;;;491555;240;2426;-49
2022/07/27 22:24:58;;;;;;;;;;;22.10;47.70;;;;;;492074;240;2105;-50
2022/07/27 22:26:59;;;;;;;;;;;22.10;47.80;;;;;;491999;240;1085;-49
2022/07/27 22:29:01;;;;;;;;;;;22.10;47.80;;;;;;491849;240;1285;-50
2022/07/27 22:31:02;;;;;;;;;;;22.10;47.80;;;;;;491703;240;1637;-49
2022/07/27 22:33:03;;;;;;;;;;;22.10;47.80;;;;;;491656;240;1263;-49
2022/07/27 22:35:05;;;;;;;;;;;22.10;47.80;;;;;;491601;240;1201;-49
2022/07/27 22:37:06;;;;;;;;;;;22.10;47.80;;;;;;492062;240;1237;-50
2022/07/27 22:39:07;;;;;;;;;;;22.10;47.80;;;;;;492105;240;1217;-49
2022/07/27 22:41:09;;;;;;;;;;;22.10;47.80;;;;;;492094;240;2132;-49
2022/07/27 22:43:10;;;;;;;;;;;22.10;47.80;;;;;;491999;240;1311;-49
2022/07/27 22:45:11;;;;;;;;;;;22.10;47.80;;;;;;492129;240;1121;-50
2022/07/27 22:47:13;;;;;;;;;;;22.10;47.90;;;;;;491670;240;1276;-50
2022/07/27 22:49:14;;;;;;;;;;;22.10;47.80;;;;;;491615;240;1165;-50
2022/07/27 22:51:15;;;;;;;;;;;22.10;47.90;;;;;;491930;240;1192;-50
2022/07/27 22:53:17;;;;;;;;;;;22.10;47.90;;;;;;491805;240;1137;-50
2022/07/27 22:55:18;;;;;;;;;;;22.10;47.90;;;;;;491854;240;1372;-49
2022/07/27 22:57:24;;;;;;;;;;;22.00;47.90;;;;;;491779;240;1225;-49
2022/07/27 22:59:21;;;;;;;;;;;22.10;47.80;;;;;;491814;240;1986;-50
2022/07/27 23:01:22;;;;;;;;;;;22.10;47.80;;;;;;491628;240;2124;-49
2022/07/27 23:03:23;;;;;;;;;;;22.10;47.90;;;;;;492116;240;1364;-49
2022/07/27 23:05:25;;;;;;;;;;;22.10;47.80;;;;;;491641;240;1137;-50
2022/07/27 23:07:26;;;;;;;;;;;22.10;47.90;;;;;;491615;240;1289;-49
2022/07/27 23:09:27;;;;;;;;;;;22.10;47.90;;;;;;492146;240;1220;-50
2022/07/27 23:11:29;;;;;;;;;;;22.10;47.90;;;;;;491963;240;1026;-49
2022/07/27 23:13:30;;;;;;;;;;;22.10;48.00;;;;;;491686;240;1077;-49
2022/07/27 23:15:31;;;;;;;;;;;22.10;47.90;;;;;;492120;240;1073;-49
2022/07/27 23:17:33;;;;;;;;;;;22.10;48.00;;;;;;491647;240;1086;-50
2022/07/27 23:19:34;;;;;;;;;;;22.10;47.90;;;;;;492105;240;1205;-49
2022/07/27 23:21:35;;;;;;;;;;;22.10;48.00;;;;;;492060;240;2129;-49
2022/07/27 23:23:37;;;;;;;;;;;22.10;48.00;;;;;;491839;240;1289;-50
2022/07/27 23:25:38;;;;;;;;;;;22.10;48.00;;;;;;491720;240;1188;-50
2022/07/27 23:27:39;;;;;;;;;;;22.00;48.00;;;;;;492090;240;1206;-50
2022/07/27 23:29:41;;;;;;;;;;;22.10;48.10;;;;;;492106;240;1173;-49
2022/07/27 23:31:42;;;;;;;;;;;22.10;48.00;;;;;;492033;240;1666;-49
2022/07/27 23:33:43;;;;;;;;;;;22.10;48.00;;;;;;491632;240;1230;-50
2022/07/27 23:35:45;;;;;;;;;;;22.10;48.00;;;;;;491639;240;1381;-50
2022/07/27 23:37:46;;;;;;;;;;;22.00;48.00;;;;;;491651;240;1415;-50
2022/07/27 23:39:47;;;;;;;;;;;22.10;48.10;;;;;;491989;240;1038;-50
2022/07/27 23:41:48;;;;;;;;;;;22.10;48.00;;;;;;492108;240;2121;-49
2022/07/27 23:43:50;;;;;;;;;;;22.10;48.10;;;;;;491688;240;1086;-50
2022/07/27 23:45:51;;;;;;;;;;;22.10;48.10;;;;;;492131;240;1056;-49
2022/07/27 23:47:52;;;;;;;;;;;22.00;48.10;;;;;;491971;240;1213;-49
2022/07/27 23:49:54;;;;;;;;;;;22.10;48.10;;;;;;492112;240;1300;-50
2022/07/27 23:51:55;;;;;;;;;;;22.00;48.00;;;;;;491621;240;1281;-50
2022/07/27 23:53:57;;;;;;;;;;;22.10;48.10;;;;;;491920;240;1272;-50
2022/07/27 23:55:58;;;;;;;;;;;22.10;48.10;;;;;;491947;240;1262;-49
2022/07/27 23:57:59;;;;;;;;;;;22.10;48.00;;;;;;492096;240;1282;-49
